sensor_id;sensor_type;location;lat;lon;timestamp;pressure;altitude;pressure_sealevel;temperature;humidity
13553;BME280;6847;48.830;9.116;2024-03-23T00:54:08;97179.63;;;13.14;47.59
13553;BME280;6847;48.830;9.116;2024-03-23T00:56:34;97167.34;;;13.17;48.04
13553;BME280;6847;48.830;9.116;2024-03-23T00:58:59;97166.72;;;13.20;47.88
13553;BME280;6847;48.830;9.116;2024-03-23T01:01:26;97172.16;;;13.20;47.69
13553;BME280;6847;48.830;9.116;2024-03-23T01:03:54;97169.28;;;13.25;48.23
13553;BME280;6847;48.830;9.116;2024-03-23T01:06:22;97161.19;;;13.33;48.30
13553;BME280;6847;48.830;9.116;2024-03-23T01:08:50;97164.75;;;13.43;47.85
13553;BME280;6847;48.830;9.116;2024-03-23T01:11:17;97155.84;;;13.51;47.98
13553;BME280;6847;48.830;9.116;2024-03-23T01:13:43;97147.72;;;13.59;47.96
13553;BME280;6847;48.830;9.116;2024-03-23T01:16:09;97140.69;;;13.67;47.75
13553;BME280;6847;48.830;9.116;2024-03-23T01:18:34;97122.94;;;13.69;48.00
13553;BME280;6847;48.830;9.116;2024-03-23T01:21:01;97129.50;;;13.68;47.81
13553;BME280;6847;48.830;9.116;2024-03-23T01:23:28;97131.91;;;13.70;47.84
13553;BME280;6847;48.830;9.116;2024-03-23T01:25:54;97132.88;;;13.74;47.59
13553;BME280;6847;48.830;9.116;2024-03-23T01:28:20;97122.16;;;13.78;48.21
13553;BME280;6847;48.830;9.116;2024-03-23T01:30:46;97124.72;;;13.83;47.87
13553;BME280;6847;48.830;9.116;2024-03-23T01:33:12;97123.94;;;13.91;47.87
13553;BME280;6847;48.830;9.116;2024-03-23T01:35:40;97120.91;;;14.01;47.76
13553;BME280;6847;48.830;9.116;2024-03-23T01:38:06;97112.13;;;14.13;47.96
13553;BME280;6847;48.830;9.116;2024-03-23T01:40:34;97111.66;;;14.28;47.90
13553;BME280;6847;48.830;9.116;2024-03-23T01:43:02;97109.28;;;14.43;47.83
13553;BME280;6847;48.830;9.116;2024-03-23T01:45:29;97101.09;;;14.61;47.71
13553;BME280;6847;48.830;9.116;2024-03-23T01:47:55;97102.53;;;14.75;47.60
13553;BME280;6847;48.830;9.116;2024-03-23T01:50:21;97097.56;;;14.86;47.56
13553;BME280;6847;48.830;9.116;2024-03-23T01:52:47;97097.84;;;14.93;47.56
13553;BME280;6847;48.830;9.116;2024-03-23T01:55:14;97082.47;;;14.97;47.57
13553;BME280;6847;48.830;9.116;2024-03-23T01:57:41;97068.63;;;15.02;47.60
13553;BME280;6847;48.830;9.116;2024-03-23T02:00:07;97067.50;;;15.03;47.74
13553;BME280;6847;48.830;9.116;2024-03-23T02:02:34;97073.44;;;15.05;47.74
13553;BME280;6847;48.830;9.116;2024-03-23T02:05:00;97070.53;;;15.10;47.74
13553;BME280;6847;48.830;9.116;2024-03-23T02:07:28;97061.06;;;15.16;47.78
13553;BME280;6847;48.830;9.116;2024-03-23T02:09:55;97069.53;;;15.24;47.69
13553;BME280;6847;48.830;9.116;2024-03-23T02:12:21;97067.41;;;15.29;47.83
13553;BME280;6847;48.830;9.116;2024-03-23T02:14:53;97063.72;;;15.34;47.72
13553;BME280;6847;48.830;9.116;2024-03-23T02:17:21;97071.69;;;15.39;47.76
13553;BME280;6847;48.830;9.116;2024-03-23T02:19:48;97053.06;;;15.41;47.86
13553;BME280;6847;48.830;9.116;2024-03-23T02:22:14;97056.28;;;15.43;47.62
13553;BME280;6847;48.830;9.116;2024-03-23T02:24:42;97049.22;;;15.42;47.78
13553;BME280;6847;48.830;9.116;2024-03-23T02:27:11;97053.06;;;15.41;47.96
13553;BME280;6847;48.830;9.116;2024-03-23T02:29:38;97044.41;;;15.39;47.85
13553;BME280;6847;48.830;9.116;2024-03-23T02:32:04;97051.34;;;15.36;47.92
13553;BME280;6847;48.830;9.116;2024-03-23T02:34:31;97056.00;;;15.36;47.75
13553;BME280;6847;48.830;9.116;2024-03-23T02:36:59;97040.28;;;15.33;47.94
13553;BME280;6847;48.830;9.116;2024-03-23T02:39:25;97050.25;;;15.29;47.89
13553;BME280;6847;48.830;9.116;2024-03-23T02:41:52;97040.00;;;15.26;47.85
13553;BME280;6847;48.830;9.116;2024-03-23T02:44:18;97046.09;;;15.23;47.98
13553;BME280;6847;48.830;9.116;2024-03-23T02:46:44;97028.78;;;15.18;48.01
13553;BME280;6847;48.830;9.116;2024-03-23T02:49:10;97036.03;;;15.14;48.20
13553;BME280;6847;48.830;9.116;2024-03-23T02:51:36;97037.81;;;15.10;48.22
13553;BME280;6847;48.830;9.116;2024-03-23T02:54:03;97026.31;;;15.05;48.22
13553;BME280;6847;48.830;9.116;2024-03-23T02:56:29;97032.72;;;15.00;48.04
13553;BME280;6847;48.830;9.116;2024-03-23T02:58:57;97023.63;;;14.96;48.36
13553;BME280;6847;48.830;9.116;2024-03-23T03:01:22;97023.28;;;14.89;48.04
13553;BME280;6847;48.830;9.116;2024-03-23T03:03:50;97025.75;;;14.82;48.19
13553;BME280;6847;48.830;9.116;2024-03-23T03:06:22;97035.69;;;14.78;48.38
13553;BME280;6847;48.830;9.116;2024-03-23T03:08:49;97020.63;;;14.72;48.37
13553;BME280;6847;48.830;9.116;2024-03-23T03:11:14;97022.44;;;14.68;48.39
13553;BME280;6847;48.830;9.116;2024-03-23T03:13:40;97012.97;;;14.65;48.23
13553;BME280;6847;48.830;9.116;2024-03-23T03:16:09;97004.63;;;14.62;48.38
13553;BME280;6847;48.830;9.116;2024-03-23T03:18:36;97002.59;;;14.59;48.75
13553;BME280;6847;48.830;9.116;2024-03-23T03:21:01;97000.19;;;14.57;48.61
13553;BME280;6847;48.830;9.116;2024-03-23T03:23:28;97000.00;;;14.54;48.57
13553;BME280;6847;48.830;9.116;2024-03-23T03:25:54;96994.09;;;14.52;48.57
13553;BME280;6847;48.830;9.116;2024-03-23T03:28:24;96992.47;;;14.51;48.66
13553;BME280;6847;48.830;9.116;2024-03-23T03:30:53;96992.34;;;14.47;48.44
13553;BME280;6847;48.830;9.116;2024-03-23T03:33:23;96980.97;;;14.45;48.35
13553;BME280;6847;48.830;9.116;2024-03-23T03:35:49;96985.94;;;14.43;48.64
13553;BME280;6847;48.830;9.116;2024-03-23T03:38:17;96988.34;;;14.44;48.51
13553;BME280;6847;48.830;9.116;2024-03-23T03:40:44;96988.97;;;14.41;48.90
13553;BME280;6847;48.830;9.116;2024-03-23T03:43:11;96987.72;;;14.39;48.70
13553;BME280;6847;48.830;9.116;2024-03-23T03:45:36;96981.59;;;14.33;48.71
13553;BME280;6847;48.830;9.116;2024-03-23T03:48:03;96977.47;;;14.27;48.83
13553;BME280;6847;48.830;9.116;2024-03-23T03:50:30;96962.41;;;14.21;48.73
13553;BME280;6847;48.830;9.116;2024-03-23T03:52:56;96944.34;;;14.17;48.79
13553;BME280;6847;48.830;9.116;2024-03-23T03:55:21;96943.53;;;14.16;48.90
13553;BME280;6847;48.830;9.116;2024-03-23T03:57:48;96941.13;;;14.15;48.89
13553;BME280;6847;48.830;9.116;2024-03-23T04:00:15;96935.06;;;14.18;49.14
13553;BME280;6847;48.830;9.116;2024-03-23T04:02:43;96941.09;;;14.23;48.83
13553;BME280;6847;48.830;9.116;2024-03-23T04:05:10;96930.06;;;14.28;48.72
13553;BME280;6847;48.830;9.116;2024-03-23T04:07:39;96921.72;;;14.33;48.79
13553;BME280;6847;48.830;9.116;2024-03-23T04:10:05;96915.00;;;14.39;48.97
13553;BME280;6847;48.830;9.116;2024-03-23T04:12:39;96903.28;;;14.48;49.05
13553;BME280;6847;48.830;9.116;2024-03-23T04:15:05;96905.66;;;14.58;48.88
13553;BME280;6847;48.830;9.116;2024-03-23T04:17:32;96908.47;;;14.70;48.86
13553;BME280;6847;48.830;9.116;2024-03-23T04:19:59;96915.34;;;14.76;48.73
13553;BME280;6847;48.830;9.116;2024-03-23T04:22:26;96925.25;;;14.80;48.77
13553;BME280;6847;48.830;9.116;2024-03-23T04:24:54;96955.84;;;14.86;48.86
13553;BME280;6847;48.830;9.116;2024-03-23T04:27:22;96990.00;;;14.84;48.83
13553;BME280;6847;48.830;9.116;2024-03-23T04:29:47;96994.22;;;14.64;49.15
13553;BME280;6847;48.830;9.116;2024-03-23T04:32:14;96995.53;;;14.40;49.96
13553;BME280;6847;48.830;9.116;2024-03-23T04:34:40;96994.75;;;14.14;51.66
13553;BME280;6847;48.830;9.116;2024-03-23T04:37:10;96979.09;;;13.94;53.37
13553;BME280;6847;48.830;9.116;2024-03-23T04:39:37;96982.31;;;13.79;55.75
13553;BME280;6847;48.830;9.116;2024-03-23T04:42:11;96974.16;;;13.70;56.77
13553;BME280;6847;48.830;9.116;2024-03-23T04:44:43;96970.75;;;13.64;57.96
13553;BME280;6847;48.830;9.116;2024-03-23T04:47:15;96980.69;;;13.60;59.21
13553;BME280;6847;48.830;9.116;2024-03-23T04:49:47;96986.75;;;13.57;59.96
13553;BME280;6847;48.830;9.116;2024-03-23T04:52:18;96984.34;;;13.56;60.15
13553;BME280;6847;48.830;9.116;2024-03-23T04:55:09;96990.59;;;13.56;60.84
13553;BME280;6847;48.830;9.116;2024-03-23T05:03:59;96981.81;;;13.51;62.42
13553;BME280;6847;48.830;9.116;2024-03-23T05:06:26;96982.75;;;13.46;62.70
13553;BME280;6847;48.830;9.116;2024-03-23T05:08:52;96987.84;;;13.39;62.83
13553;BME280;6847;48.830;9.116;2024-03-23T05:11:21;96994.88;;;13.31;63.41
13553;BME280;6847;48.830;9.116;2024-03-23T05:13:47;96993.59;;;13.29;63.37
13553;BME280;6847;48.830;9.116;2024-03-23T05:16:14;96993.91;;;13.27;63.75
13553;BME280;6847;48.830;9.116;2024-03-23T05:18:40;96998.38;;;13.23;63.97
13553;BME280;6847;48.830;9.116;2024-03-23T05:21:08;96999.00;;;13.20;63.99
13553;BME280;6847;48.830;9.116;2024-03-23T05:23:33;96991.78;;;13.16;64.32
13553;BME280;6847;48.830;9.116;2024-03-23T05:26:00;97014.13;;;13.13;64.89
13553;BME280;6847;48.830;9.116;2024-03-23T05:28:26;97001.81;;;13.07;65.03
13553;BME280;6847;48.830;9.116;2024-03-23T05:30:52;96995.72;;;13.01;64.50
13553;BME280;6847;48.830;9.116;2024-03-23T05:33:19;97003.69;;;12.97;64.60
13553;BME280;6847;48.830;9.116;2024-03-23T05:35:46;96998.88;;;12.94;64.96
13553;BME280;6847;48.830;9.116;2024-03-23T05:38:14;97008.47;;;12.92;65.44
13553;BME280;6847;48.830;9.116;2024-03-23T05:40:47;97013.72;;;12.88;65.47
13553;BME280;6847;48.830;9.116;2024-03-23T05:43:17;97023.59;;;12.84;65.23
13553;BME280;6847;48.830;9.116;2024-03-23T05:45:44;97038.94;;;12.80;65.86
13553;BME280;6847;48.830;9.116;2024-03-23T05:48:16;97046.91;;;12.77;66.02
13553;BME280;6847;48.830;9.116;2024-03-23T05:50:43;97050.88;;;12.71;65.97
13553;BME280;6847;48.830;9.116;2024-03-23T05:53:15;97052.91;;;12.65;65.85
13553;BME280;6847;48.830;9.116;2024-03-23T05:55:42;97047.91;;;12.58;66.20
13553;BME280;6847;48.830;9.116;2024-03-23T05:58:08;97041.50;;;12.54;66.73
13553;BME280;6847;48.830;9.116;2024-03-23T06:00:36;97040.34;;;12.47;66.23
13553;BME280;6847;48.830;9.116;2024-03-23T06:03:02;97043.50;;;12.40;66.50
13553;BME280;6847;48.830;9.116;2024-03-23T06:05:28;97052.09;;;12.34;66.60
13553;BME280;6847;48.830;9.116;2024-03-23T06:07:54;97063.34;;;12.27;66.91
13553;BME280;6847;48.830;9.116;2024-03-23T06:10:24;97066.19;;;12.22;66.37
13553;BME280;6847;48.830;9.116;2024-03-23T06:12:50;97073.63;;;12.16;66.65
13553;BME280;6847;48.830;9.116;2024-03-23T06:15:19;97074.88;;;12.10;67.37
13553;BME280;6847;48.830;9.116;2024-03-23T06:17:44;97072.47;;;12.09;67.29
13553;BME280;6847;48.830;9.116;2024-03-23T06:20:12;97081.72;;;12.08;67.40
13553;BME280;6847;48.830;9.116;2024-03-23T06:22:39;97077.69;;;12.05;67.39
13553;BME280;6847;48.830;9.116;2024-03-23T06:25:13;97066.03;;;12.05;67.69
13553;BME280;6847;48.830;9.116;2024-03-23T06:27:41;97085.34;;;12.03;67.81
13553;BME280;6847;48.830;9.116;2024-03-23T06:30:08;97095.72;;;12.01;68.01
13553;BME280;6847;48.830;9.116;2024-03-23T06:32:36;97102.22;;;12.00;68.02
13553;BME280;6847;48.830;9.116;2024-03-23T06:35:04;97113.09;;;12.00;67.75
13553;BME280;6847;48.830;9.116;2024-03-23T06:37:33;97136.50;;;11.96;66.93
13553;BME280;6847;48.830;9.116;2024-03-23T06:40:04;97142.63;;;11.88;67.65
13553;BME280;6847;48.830;9.116;2024-03-23T06:42:33;97134.81;;;11.86;67.39
13553;BME280;6847;48.830;9.116;2024-03-23T06:45:02;97143.25;;;11.85;68.00
13553;BME280;6847;48.830;9.116;2024-03-23T06:47:27;97150.28;;;11.86;67.89
13553;BME280;6847;48.830;9.116;2024-03-23T06:49:56;97148.28;;;11.92;67.53
13553;BME280;6847;48.830;9.116;2024-03-23T06:52:22;97150.84;;;11.97;68.10
13553;BME280;6847;48.830;9.116;2024-03-23T06:54:51;97160.91;;;11.96;67.78
13553;BME280;6847;48.830;9.116;2024-03-23T06:57:20;97156.00;;;11.98;67.52
13553;BME280;6847;48.830;9.116;2024-03-23T06:59:46;97160.91;;;11.96;67.75
13553;BME280;6847;48.830;9.116;2024-03-23T07:02:14;97163.94;;;11.95;67.04
13553;BME280;6847;48.830;9.116;2024-03-23T07:04:41;97183.81;;;12.04;67.78
13553;BME280;6847;48.830;9.116;2024-03-23T07:07:06;97206.09;;;12.14;67.66
13553;BME280;6847;48.830;9.116;2024-03-23T07:09:35;97194.53;;;12.22;67.88
13553;BME280;6847;48.830;9.116;2024-03-23T07:12:03;97210.63;;;12.33;67.32
13553;BME280;6847;48.830;9.116;2024-03-23T07:14:30;97235.41;;;12.40;67.47
13553;BME280;6847;48.830;9.116;2024-03-23T07:16:55;97230.97;;;12.44;67.16
13553;BME280;6847;48.830;9.116;2024-03-23T07:19:25;97236.31;;;12.49;67.60
13553;BME280;6847;48.830;9.116;2024-03-23T07:21:54;97233.00;;;12.74;66.78
13553;BME280;6847;48.830;9.116;2024-03-23T07:24:22;97237.31;;;12.75;66.41
13553;BME280;6847;48.830;9.116;2024-03-23T07:26:48;97236.94;;;12.68;66.84
13553;BME280;6847;48.830;9.116;2024-03-23T07:29:17;97246.81;;;12.64;67.29
13553;BME280;6847;48.830;9.116;2024-03-23T07:31:43;97246.25;;;12.53;67.06
13553;BME280;6847;48.830;9.116;2024-03-23T07:34:09;97245.69;;;12.43;66.90
13553;BME280;6847;48.830;9.116;2024-03-23T07:36:39;97256.13;;;12.36;66.32
13553;BME280;6847;48.830;9.116;2024-03-23T07:39:05;97268.22;;;12.30;65.79
13553;BME280;6847;48.830;9.116;2024-03-23T07:41:32;97281.09;;;12.24;65.89
13553;BME280;6847;48.830;9.116;2024-03-23T07:43:58;97270.63;;;12.17;65.94
13553;BME280;6847;48.830;9.116;2024-03-23T07:46:24;97275.66;;;12.10;65.76
13553;BME280;6847;48.830;9.116;2024-03-23T07:48:51;97285.00;;;12.04;65.28
13553;BME280;6847;48.830;9.116;2024-03-23T07:51:17;97287.91;;;11.94;65.00
13553;BME280;6847;48.830;9.116;2024-03-23T07:53:45;97299.53;;;11.81;65.02
13553;BME280;6847;48.830;9.116;2024-03-23T07:56:13;97312.09;;;11.77;64.47
13553;BME280;6847;48.830;9.116;2024-03-23T07:58:40;97315.31;;;11.79;64.73
13553;BME280;6847;48.830;9.116;2024-03-23T08:01:06;97309.69;;;11.89;65.08
13553;BME280;6847;48.830;9.116;2024-03-23T08:03:34;97309.00;;;11.97;63.90
13553;BME280;6847;48.830;9.116;2024-03-23T08:06:08;97304.97;;;12.63;63.25
13553;BME280;6847;48.830;9.116;2024-03-23T08:08:35;97311.88;;;12.83;63.44
13553;BME280;6847;48.830;9.116;2024-03-23T08:11:02;97325.19;;;12.57;63.66
13553;BME280;6847;48.830;9.116;2024-03-23T08:13:29;97332.31;;;12.26;63.75
13553;BME280;6847;48.830;9.116;2024-03-23T08:15:56;97338.75;;;12.02;64.75
13553;BME280;6847;48.830;9.116;2024-03-23T08:18:23;97345.06;;;11.84;65.05
13553;BME280;6847;48.830;9.116;2024-03-23T08:20:55;97339.28;;;11.72;66.19
13553;BME280;6847;48.830;9.116;2024-03-23T08:23:21;97347.47;;;11.67;66.86
13553;BME280;6847;48.830;9.116;2024-03-23T08:25:46;97347.34;;;11.77;66.37
13553;BME280;6847;48.830;9.116;2024-03-23T08:28:14;97355.19;;;11.78;66.93
13553;BME280;6847;48.830;9.116;2024-03-23T08:30:40;97366.47;;;11.67;67.29
13553;BME280;6847;48.830;9.116;2024-03-23T08:33:08;97387.84;;;11.55;66.99
13553;BME280;6847;48.830;9.116;2024-03-23T08:35:33;97396.13;;;11.44;67.88
13553;BME280;6847;48.830;9.116;2024-03-23T08:38:00;97408.06;;;11.43;66.90
13553;BME280;6847;48.830;9.116;2024-03-23T08:40:26;97415.28;;;11.48;67.71
13553;BME280;6847;48.830;9.116;2024-03-23T08:42:53;97422.56;;;11.53;68.17
13553;BME280;6847;48.830;9.116;2024-03-23T08:45:20;97428.19;;;11.56;67.64
13553;BME280;6847;48.830;9.116;2024-03-23T08:47:47;97428.19;;;11.56;68.07
13553;BME280;6847;48.830;9.116;2024-03-23T08:50:15;97429.75;;;11.43;66.49
13553;BME280;6847;48.830;9.116;2024-03-23T08:52:41;97428.19;;;11.19;66.50
13553;BME280;6847;48.830;9.116;2024-03-23T08:55:07;97423.56;;;11.00;67.56
13553;BME280;6847;48.830;9.116;2024-03-23T08:57:34;97406.38;;;11.10;67.57
13553;BME280;6847;48.830;9.116;2024-03-23T09:00:01;97405.78;;;11.32;68.08
13553;BME280;6847;48.830;9.116;2024-03-23T09:02:29;97410.16;;;12.44;67.41
13553;BME280;6847;48.830;9.116;2024-03-23T09:04:55;97434.59;;;14.06;64.31
13553;BME280;6847;48.830;9.116;2024-03-23T09:07:21;97444.03;;;13.64;64.26
13553;BME280;6847;48.830;9.116;2024-03-23T09:09:46;97456.84;;;13.01;65.05
13553;BME280;6847;48.830;9.116;2024-03-23T09:12:13;97465.31;;;12.72;66.44
13553;BME280;6847;48.830;9.116;2024-03-23T09:14:38;97472.72;;;12.66;67.60
13553;BME280;6847;48.830;9.116;2024-03-23T09:17:07;97478.50;;;13.55;67.00
13553;BME280;6847;48.830;9.116;2024-03-23T09:19:35;97490.94;;;14.90;64.89
13553;BME280;6847;48.830;9.116;2024-03-23T09:22:01;97503.84;;;15.55;62.49
13553;BME280;6847;48.830;9.116;2024-03-23T09:24:27;97509.63;;;15.62;62.54
13553;BME280;6847;48.830;9.116;2024-03-23T09:26:53;97500.16;;;15.68;63.10
13553;BME280;6847;48.830;9.116;2024-03-23T09:29:18;97502.59;;;16.21;62.93
13553;BME280;6847;48.830;9.116;2024-03-23T09:31:45;97492.81;;;18.02;60.36
13553;BME280;6847;48.830;9.116;2024-03-23T09:34:11;97495.78;;;18.42;59.64
13553;BME280;6847;48.830;9.116;2024-03-23T09:36:38;97499.75;;;17.99;60.73
13553;BME280;6847;48.830;9.116;2024-03-23T09:39:04;97494.88;;;17.55;61.52
13553;BME280;6847;48.830;9.116;2024-03-23T09:41:30;97499.31;;;17.09;62.12
13553;BME280;6847;48.830;9.116;2024-03-23T09:43:56;97503.66;;;16.63;62.57
13553;BME280;6847;48.830;9.116;2024-03-23T09:46:22;97494.69;;;16.37;63.30
13553;BME280;6847;48.830;9.116;2024-03-23T09:48:49;97491.00;;;16.16;62.84
13553;BME280;6847;48.830;9.116;2024-03-23T09:51:15;97492.16;;;15.89;63.09
13553;BME280;6847;48.830;9.116;2024-03-23T09:53:44;97497.13;;;15.61;63.22
13553;BME280;6847;48.830;9.116;2024-03-23T09:56:10;97497.06;;;15.44;63.09
13553;BME280;6847;48.830;9.116;2024-03-23T09:58:35;97488.56;;;15.37;63.04
13553;BME280;6847;48.830;9.116;2024-03-23T10:01:04;97492.19;;;15.15;62.49
13553;BME280;6847;48.830;9.116;2024-03-23T10:03:30;97507.31;;;14.90;62.18
13553;BME280;6847;48.830;9.116;2024-03-23T10:06:00;97497.19;;;14.82;62.23
13553;BME280;6847;48.830;9.116;2024-03-23T10:08:25;97458.25;;;14.90;61.83
13553;BME280;6847;48.830;9.116;2024-03-23T10:10:59;97489.75;;;15.96;60.51
13553;BME280;6847;48.830;9.116;2024-03-23T10:13:41;97455.06;;;17.07;57.90
13553;BME280;6847;48.830;9.116;2024-03-23T10:16:07;97482.22;;;18.78;54.94
13553;BME280;6847;48.830;9.116;2024-03-23T10:18:39;97473.78;;;19.56;54.02
13553;BME280;6847;48.830;9.116;2024-03-23T10:21:06;97484.53;;;18.89;54.60
13553;BME280;6847;48.830;9.116;2024-03-23T10:23:34;97481.66;;;18.40;55.31
13553;BME280;6847;48.830;9.116;2024-03-23T10:26:13;97476.31;;;18.23;55.80
13553;BME280;6847;48.830;9.116;2024-03-23T10:28:50;97477.59;;;18.04;55.96
13553;BME280;6847;48.830;9.116;2024-03-23T10:31:17;97475.81;;;17.67;56.37
13553;BME280;6847;48.830;9.116;2024-03-23T10:33:46;97475.72;;;17.25;56.34
13553;BME280;6847;48.830;9.116;2024-03-23T10:36:12;97468.03;;;16.89;56.74
13553;BME280;6847;48.830;9.116;2024-03-23T10:38:40;97472.16;;;16.49;56.49
13553;BME280;6847;48.830;9.116;2024-03-23T10:41:06;97475.63;;;16.03;56.89
13553;BME280;6847;48.830;9.116;2024-03-23T10:43:34;97490.84;;;15.61;57.11
13553;BME280;6847;48.830;9.116;2024-03-23T10:46:00;97521.66;;;15.04;56.58
13553;BME280;6847;48.830;9.116;2024-03-23T10:48:31;97550.59;;;14.38;56.99
13553;BME280;6847;48.830;9.116;2024-03-23T10:50:56;97543.34;;;13.76;57.26
13553;BME280;6847;48.830;9.116;2024-03-23T10:53:25;97553.91;;;13.27;57.78
13553;BME280;6847;48.830;9.116;2024-03-23T10:55:51;97573.97;;;12.85;58.02
13553;BME280;6847;48.830;9.116;2024-03-23T10:58:17;97584.50;;;12.41;59.21
13553;BME280;6847;48.830;9.116;2024-03-23T11:00:46;97598.75;;;11.95;60.57
13553;BME280;6847;48.830;9.116;2024-03-23T11:05:59;97596.06;;;11.05;62.13
13553;BME280;6847;48.830;9.116;2024-03-23T11:08:34;97573.91;;;10.74;63.00
13553;BME280;6847;48.830;9.116;2024-03-23T11:13:54;97558.91;;;10.87;64.53
13553;BME280;6847;48.830;9.116;2024-03-23T11:16:28;97548.41;;;11.04;64.78
13553;BME280;6847;48.830;9.116;2024-03-23T11:18:57;97546.84;;;10.98;65.29
13553;BME280;6847;48.830;9.116;2024-03-23T11:21:53;97544.09;;;11.03;65.25
13553;BME280;6847;48.830;9.116;2024-03-23T11:24:22;97537.91;;;11.64;66.79
13553;BME280;6847;48.830;9.116;2024-03-23T11:26:50;97539.63;;;12.30;66.30
13553;BME280;6847;48.830;9.116;2024-03-23T11:29:17;97541.97;;;12.82;66.21
13553;BME280;6847;48.830;9.116;2024-03-23T11:31:48;97542.09;;;13.59;66.46
13553;BME280;6847;48.830;9.116;2024-03-23T11:34:15;97553.97;;;14.58;66.40
13553;BME280;6847;48.830;9.116;2024-03-23T11:36:40;97551.38;;;15.14;65.58
13553;BME280;6847;48.830;9.116;2024-03-23T11:39:13;97551.63;;;15.04;65.55
13553;BME280;6847;48.830;9.116;2024-03-23T11:41:45;97531.09;;;14.98;65.88
13553;BME280;6847;48.830;9.116;2024-03-23T11:44:16;97539.06;;;14.86;65.80
13553;BME280;6847;48.830;9.116;2024-03-23T11:46:44;97543.41;;;14.65;65.93
13553;BME280;6847;48.830;9.116;2024-03-23T11:49:22;97530.91;;;14.19;65.27
13553;BME280;6847;48.830;9.116;2024-03-23T11:51:50;97525.09;;;13.90;65.89
13553;BME280;6847;48.830;9.116;2024-03-23T11:54:20;97524.81;;;13.78;66.78
13553;BME280;6847;48.830;9.116;2024-03-23T11:56:55;97525.47;;;13.61;66.79
13553;BME280;6847;48.830;9.116;2024-03-23T11:59:31;97518.63;;;13.50;67.28
13553;BME280;6847;48.830;9.116;2024-03-23T12:01:57;97526.72;;;13.41;66.88
13553;BME280;6847;48.830;9.116;2024-03-23T12:04:26;97528.31;;;13.28;67.27
13553;BME280;6847;48.830;9.116;2024-03-23T12:07:11;97515.22;;;13.17;67.57
13553;BME280;6847;48.830;9.116;2024-03-23T12:09:38;97505.34;;;13.07;67.13
13553;BME280;6847;48.830;9.116;2024-03-23T12:12:08;97503.13;;;13.09;66.90
13553;BME280;6847;48.830;9.116;2024-03-23T12:14:34;97500.50;;;13.45;67.42
13553;BME280;6847;48.830;9.116;2024-03-23T12:17:07;97504.78;;;13.96;66.56
13553;BME280;6847;48.830;9.116;2024-03-23T12:19:35;97502.47;;;14.48;65.55
13553;BME280;6847;48.830;9.116;2024-03-23T12:22:00;97504.00;;;15.02;65.16
13553;BME280;6847;48.830;9.116;2024-03-23T12:24:27;97509.19;;;15.29;64.03
13553;BME280;6847;48.830;9.116;2024-03-23T12:26:52;97505.53;;;15.34;63.24
13553;BME280;6847;48.830;9.116;2024-03-23T12:29:20;97500.09;;;15.34;62.86
13553;BME280;6847;48.830;9.116;2024-03-23T12:31:45;97490.78;;;15.35;62.80
13553;BME280;6847;48.830;9.116;2024-03-23T12:34:13;97492.94;;;15.64;62.23
13553;BME280;6847;48.830;9.116;2024-03-23T12:36:39;97493.09;;;16.10;61.74
13553;BME280;6847;48.830;9.116;2024-03-23T12:39:09;97483.56;;;16.51;61.25
13553;BME280;6847;48.830;9.116;2024-03-23T12:41:36;97496.25;;;16.55;60.59
13553;BME280;6847;48.830;9.116;2024-03-23T12:44:03;97497.38;;;16.72;60.51
13553;BME280;6847;48.830;9.116;2024-03-23T12:46:28;97514.38;;;16.77;59.36
13553;BME280;6847;48.830;9.116;2024-03-23T12:48:54;97498.19;;;16.46;59.36
13553;BME280;6847;48.830;9.116;2024-03-23T12:51:21;97502.75;;;16.08;58.97
13553;BME280;6847;48.830;9.116;2024-03-23T12:53:51;97508.38;;;15.85;59.25
13553;BME280;6847;48.830;9.116;2024-03-23T12:56:16;97500.84;;;15.82;58.92
13553;BME280;6847;48.830;9.116;2024-03-23T12:58:43;97498.69;;;15.53;58.46
13553;BME280;6847;48.830;9.116;2024-03-23T13:01:10;97491.88;;;15.25;58.25
13553;BME280;6847;48.830;9.116;2024-03-23T13:03:37;97493.94;;;15.19;58.23
13553;BME280;6847;48.830;9.116;2024-03-23T13:06:02;97476.34;;;15.43;57.76
13553;BME280;6847;48.830;9.116;2024-03-23T13:08:32;97482.03;;;15.98;57.21
13553;BME280;6847;48.830;9.116;2024-03-23T13:11:02;97471.84;;;16.50;56.15
13553;BME280;6847;48.830;9.116;2024-03-23T13:13:28;97469.31;;;17.21;55.41
13553;BME280;6847;48.830;9.116;2024-03-23T13:15:53;97474.69;;;17.38;55.10
13553;BME280;6847;48.830;9.116;2024-03-23T13:18:22;97474.44;;;17.31;54.33
13553;BME280;6847;48.830;9.116;2024-03-23T13:20:48;97462.28;;;17.41;54.21
13553;BME280;6847;48.830;9.116;2024-03-23T13:23:14;97475.06;;;17.58;53.66
13553;BME280;6847;48.830;9.116;2024-03-23T13:25:40;97447.13;;;17.44;52.69
13553;BME280;6847;48.830;9.116;2024-03-23T13:28:07;97452.22;;;17.04;53.24
13553;BME280;6847;48.830;9.116;2024-03-23T13:30:38;97447.28;;;16.88;52.64
13553;BME280;6847;48.830;9.116;2024-03-23T13:33:04;97446.22;;;17.10;52.12
13553;BME280;6847;48.830;9.116;2024-03-23T13:35:33;97440.03;;;16.92;51.22
13553;BME280;6847;48.830;9.116;2024-03-23T13:38:00;97429.22;;;16.96;50.97
13553;BME280;6847;48.830;9.116;2024-03-23T13:40:26;97437.72;;;17.32;50.91
13553;BME280;6847;48.830;9.116;2024-03-23T13:42:52;97416.25;;;17.64;50.17
13553;BME280;6847;48.830;9.116;2024-03-23T13:45:21;97435.88;;;17.87;49.50
13553;BME280;6847;48.830;9.116;2024-03-23T13:47:47;97442.53;;;18.19;49.42
13553;BME280;6847;48.830;9.116;2024-03-23T13:50:13;97441.88;;;18.01;49.48
13553;BME280;6847;48.830;9.116;2024-03-23T13:52:39;97450.16;;;17.51;49.79
13553;BME280;6847;48.830;9.116;2024-03-23T13:55:05;97481.19;;;16.96;50.21
13553;BME280;6847;48.830;9.116;2024-03-23T13:57:32;97501.63;;;16.17;49.94
13553;BME280;6847;48.830;9.116;2024-03-23T13:59:57;97484.66;;;15.21;50.80
13553;BME280;6847;48.830;9.116;2024-03-23T14:02:25;97503.94;;;14.09;51.24
13553;BME280;6847;48.830;9.116;2024-03-23T14:04:51;97534.91;;;12.95;53.04
13553;BME280;6847;48.830;9.116;2024-03-23T14:07:17;97527.63;;;11.98;54.31
13553;BME280;6847;48.830;9.116;2024-03-23T14:09:53;97523.91;;;11.14;55.69
13553;BME280;6847;48.830;9.116;2024-03-23T14:12:20;97537.09;;;10.44;58.15
13553;BME280;6847;48.830;9.116;2024-03-23T14:14:46;97579.13;;;9.92;58.75
13553;BME280;6847;48.830;9.116;2024-03-23T14:17:21;97564.88;;;9.27;59.73